createdAt,value
2024-03-12T00:04:22.063Z,4.96
2024-03-12T00:10:16.832Z,4.98
2024-03-12T00:15:29.025Z,5.00
2024-03-12T00:28:16.444Z,5.00
2024-03-12T00:35:27.844Z,5.02
2024-03-12T00:42:32.462Z,5.01
2024-03-12T00:48:21.514Z,4.99
2024-03-12T00:53:32.958Z,4.97
2024-03-12T00:58:41.612Z,4.96
2024-03-12T01:03:49.561Z,4.97
2024-03-12T01:09:04.457Z,4.96
2024-03-12T01:14:13.916Z,4.95
2024-03-12T01:19:25.633Z,4.96
2024-03-12T01:24:33.140Z,4.95
2024-03-12T01:29:40.752Z,4.93
2024-03-12T01:34:48.312Z,4.95
2024-03-12T01:39:56.304Z,4.95
2024-03-12T01:45:07.086Z,4.94
2024-03-12T01:50:18.431Z,4.94
2024-03-12T01:55:28.269Z,4.96
2024-03-12T02:00:39.450Z,4.94
2024-03-12T02:05:47.901Z,4.89
2024-03-12T02:10:55.524Z,4.85
2024-03-12T02:16:03.255Z,4.83
2024-03-12T02:21:10.803Z,4.82
2024-03-12T02:26:18.144Z,4.85
2024-03-12T02:31:25.410Z,4.85
2024-03-12T02:36:32.862Z,4.84
2024-03-12T02:41:41.626Z,4.83
2024-03-12T02:46:51.021Z,4.82
2024-03-12T02:51:59.060Z,4.81
2024-03-12T02:57:07.029Z,4.83
2024-03-12T03:02:15.270Z,4.83
2024-03-12T03:07:22.464Z,4.85
2024-03-12T03:12:30.025Z,4.86
2024-03-12T03:17:37.949Z,4.88
2024-03-12T03:22:46.375Z,4.89
2024-03-12T03:27:54.583Z,4.91
2024-03-12T03:33:00.868Z,4.94
2024-03-12T03:38:10.254Z,4.95
2024-03-12T03:43:17.766Z,4.96
2024-03-12T03:48:25.480Z,4.96
2024-03-12T03:53:34.173Z,4.94
2024-03-12T03:58:44.714Z,4.95
2024-03-12T04:03:53.219Z,4.95
2024-03-12T04:09:00.884Z,4.95
2024-03-12T04:14:10.828Z,4.95
2024-03-12T04:19:18.255Z,4.95
2024-03-12T04:24:27.221Z,4.95
2024-03-12T04:29:34.894Z,4.97
2024-03-12T04:34:42.576Z,5.00
2024-03-12T04:39:50.693Z,5.02
2024-03-12T04:44:57.545Z,5.05
2024-03-12T04:50:05.849Z,5.07
2024-03-12T04:55:18.833Z,5.11
2024-03-12T05:00:32.678Z,5.14
2024-03-12T05:05:41.917Z,5.14
2024-03-12T05:11:02.627Z,5.12
2024-03-12T05:16:11.232Z,5.07
2024-03-12T05:21:19.259Z,5.08
2024-03-12T05:26:27.665Z,5.09
2024-03-12T05:32:19.348Z,5.09
2024-03-12T05:37:40.974Z,5.08
2024-03-12T05:43:10.534Z,5.14
2024-03-12T05:48:18.843Z,5.17
2024-03-12T05:53:26.474Z,5.18
2024-03-12T05:58:33.839Z,5.19
2024-03-12T06:03:44.244Z,5.20
2024-03-12T06:08:52.028Z,5.21
2024-03-12T06:14:04.354Z,5.22
2024-03-12T06:19:15.254Z,5.21
2024-03-12T06:24:23.283Z,5.19
2024-03-12T06:29:59.605Z,5.21
2024-03-12T06:35:09.288Z,5.27
2024-03-12T06:40:20.270Z,5.33
2024-03-12T06:45:30.307Z,5.39
2024-03-12T06:50:40.697Z,5.49
2024-03-12T06:55:48.964Z,5.57
2024-03-12T07:00:57.365Z,5.66
2024-03-12T07:06:19.610Z,5.72
2024-03-12T07:12:20.315Z,5.71
2024-03-12T07:17:32.868Z,5.66
2024-03-12T07:22:46.468Z,5.68
2024-03-12T07:27:56.769Z,5.72
2024-03-12T07:33:05.416Z,5.75
2024-03-12T07:38:30.895Z,5.78
2024-03-12T07:43:59.400Z,5.81
2024-03-12T07:49:12.378Z,5.83
2024-03-12T07:54:22.073Z,5.86
2024-03-12T07:59:31.349Z,5.90
2024-03-12T08:04:39.409Z,5.92
2024-03-12T08:09:45.412Z,5.94
2024-03-12T08:14:52.784Z,5.92
2024-03-12T08:20:00.598Z,5.94
2024-03-12T08:25:12.795Z,5.98
2024-03-12T08:30:20.968Z,6.04
2024-03-12T08:35:29.773Z,6.11
2024-03-12T08:40:39.764Z,6.16
2024-03-12T08:45:49.178Z,6.20
2024-03-12T08:50:57.714Z,6.27
2024-03-12T08:56:07.269Z,6.33
2024-03-12T09:01:14.816Z,6.40
2024-03-12T09:06:22.842Z,6.47
2024-03-12T09:11:30.250Z,6.53
2024-03-12T09:16:38.830Z,6.53
2024-03-12T09:21:46.329Z,6.53
2024-03-12T09:26:55.151Z,6.56
2024-03-12T09:32:05.382Z,6.61
2024-03-12T09:37:12.726Z,6.68
2024-03-12T09:42:21.522Z,6.73
2024-03-12T09:47:28.939Z,6.74
2024-03-12T09:52:36.714Z,6.73
2024-03-12T09:57:46.285Z,6.73
2024-03-12T10:02:53.833Z,6.80
2024-03-12T10:08:16.795Z,6.83
2024-03-12T10:13:24.795Z,6.86
2024-03-12T10:18:31.202Z,6.90
2024-03-12T10:23:41.606Z,6.97
2024-03-12T10:28:52.410Z,7.01
2024-03-12T10:34:11.629Z,7.02
2024-03-12T10:39:30.146Z,7.07
2024-03-12T10:44:40.473Z,7.07
2024-03-12T10:49:49.980Z,7.09
2024-03-12T10:55:05.745Z,7.08
2024-03-12T11:00:22.205Z,7.06
2024-03-12T11:05:30.936Z,7.10
2024-03-12T11:10:39.147Z,7.19
2024-03-12T11:15:46.931Z,7.24
2024-03-12T11:20:54.902Z,7.15
2024-03-12T11:26:05.736Z,7.11
2024-03-12T11:31:15.809Z,7.10
2024-03-12T11:36:35.972Z,7.06
2024-03-12T11:42:20.482Z,7.04
2024-03-12T11:47:36.091Z,7.09
2024-03-12T11:52:46.364Z,7.18
2024-03-12T11:57:54.743Z,7.31
2024-03-12T12:03:03.215Z,7.44
2024-03-12T12:08:12.155Z,7.51
2024-03-12T12:13:22.516Z,7.58
2024-03-12T12:18:29.842Z,7.62
2024-03-12T12:23:38.887Z,7.67
2024-03-12T12:28:50.132Z,7.64
2024-03-12T12:34:00.317Z,7.65
2024-03-12T12:39:12.469Z,7.70
2024-03-12T12:44:50.249Z,7.72
2024-03-12T12:55:29.459Z,7.79
2024-03-12T13:01:41.129Z,7.86
2024-03-12T13:07:02.334Z,7.88
2024-03-12T13:12:43.825Z,7.93
2024-03-12T13:17:54.068Z,7.94
2024-03-12T13:23:01.592Z,7.91
2024-03-12T13:28:09.972Z,7.85
2024-03-12T13:33:19.906Z,7.72
2024-03-12T13:38:28.500Z,7.60
2024-03-12T13:43:36.565Z,7.57
2024-03-12T13:48:45.551Z,7.61
2024-03-12T13:53:54.701Z,7.66
2024-03-12T13:59:03.322Z,7.60
2024-03-12T14:04:12.976Z,7.54
2024-03-12T14:09:43.371Z,7.52
2024-03-12T14:15:03.098Z,7.46
2024-03-12T14:20:16.114Z,7.43
2024-03-12T14:31:15.660Z,7.44
2024-03-12T14:36:23.357Z,7.42
2024-03-12T14:41:33.821Z,7.42
2024-03-12T14:46:43.435Z,7.42
2024-03-12T14:51:52.666Z,7.41
2024-03-12T14:57:05.020Z,7.41
2024-03-12T15:02:14.295Z,7.45
2024-03-12T15:07:21.704Z,7.48
2024-03-12T15:12:31.251Z,7.47
2024-03-12T15:17:40.746Z,7.43
2024-03-12T15:22:50.578Z,7.38
2024-03-12T15:27:59.360Z,7.37
2024-03-12T15:33:08.174Z,7.41
2024-03-12T15:38:15.658Z,7.37
2024-03-12T15:43:23.461Z,7.33
2024-03-12T15:48:33.010Z,7.30
2024-03-12T15:53:43.663Z,7.28
2024-03-12T15:58:52.708Z,7.29
2024-03-12T16:04:00.880Z,7.30
2024-03-12T16:09:10.916Z,7.32
2024-03-12T16:14:18.300Z,7.37
2024-03-12T16:19:31.391Z,7.43
2024-03-12T16:24:38.992Z,7.45
2024-03-12T16:29:48.354Z,7.37
2024-03-12T16:34:58.106Z,7.34
2024-03-12T16:40:06.993Z,7.35
2024-03-12T16:45:14.800Z,7.37
2024-03-12T16:50:22.441Z,7.36
2024-03-12T16:55:33.708Z,7.33
2024-03-12T17:00:45.374Z,7.35
2024-03-12T17:05:56.602Z,7.39
2024-03-12T17:11:05.126Z,7.42
2024-03-12T17:16:34.211Z,7.44
2024-03-12T17:21:43.776Z,7.44
2024-03-12T17:26:51.864Z,7.46
2024-03-12T17:31:59.776Z,7.44
2024-03-12T17:37:11.762Z,7.43
2024-03-12T17:42:22.076Z,7.42
2024-03-12T17:47:34.651Z,7.42
2024-03-12T17:52:43.799Z,7.41
2024-03-12T17:57:54.189Z,7.42
2024-03-12T18:03:11.346Z,7.42
2024-03-12T18:08:25.694Z,7.44
2024-03-12T18:13:34.306Z,7.45
2024-03-12T18:18:41.671Z,7.45
2024-03-12T18:23:51.523Z,7.48
2024-03-12T18:28:59.984Z,7.47
2024-03-12T18:34:09.314Z,7.41
2024-03-12T18:39:19.433Z,7.37
2024-03-12T18:44:28.197Z,7.35
2024-03-12T18:49:36.271Z,7.34
2024-03-12T18:54:42.318Z,7.27
2024-03-12T18:59:50.177Z,7.18
2024-03-12T19:05:07.224Z,7.13
2024-03-12T19:10:16.290Z,7.13
2024-03-12T19:15:26.706Z,7.10
2024-03-12T19:20:36.244Z,7.02
2024-03-12T19:25:43.572Z,6.91
2024-03-12T19:30:52.304Z,6.88
2024-03-12T19:36:02.357Z,6.88
2024-03-12T19:41:13.769Z,6.92
2024-03-12T19:46:24.185Z,6.96
2024-03-12T19:51:33.752Z,6.98
2024-03-12T19:56:42.668Z,6.93
2024-03-12T20:01:55.895Z,6.85
2024-03-12T20:07:03.910Z,6.82
2024-03-12T20:12:12.827Z,6.83
2024-03-12T20:17:21.521Z,6.85
2024-03-12T20:22:30.656Z,6.86
2024-03-12T20:27:39.560Z,6.88
2024-03-12T20:32:47.216Z,6.90
2024-03-12T20:37:55.659Z,6.90
2024-03-12T20:43:03.966Z,6.88
2024-03-12T20:48:12.187Z,6.87
2024-03-12T20:53:21.548Z,6.88
2024-03-12T20:58:29.768Z,6.89
2024-03-12T21:03:39.123Z,6.89
2024-03-12T21:08:48.993Z,6.92
2024-03-12T21:13:56.690Z,6.94
2024-03-12T21:19:04.557Z,6.93
2024-03-12T21:24:10.705Z,6.92
2024-03-12T21:29:18.178Z,6.89
2024-03-12T21:34:25.421Z,6.86
2024-03-12T21:39:32.706Z,6.81
2024-03-12T21:44:42.793Z,6.76
2024-03-12T21:49:50.073Z,6.70
2024-03-12T21:54:57.327Z,6.61
2024-03-12T22:00:11.950Z,6.56
2024-03-12T22:05:21.717Z,6.50
2024-03-12T22:10:30.975Z,6.47
2024-03-12T22:15:38.423Z,6.45
2024-03-12T22:20:47.561Z,6.42
2024-03-12T22:25:55.100Z,6.36
2024-03-12T22:31:02.514Z,6.30
2024-03-12T22:36:12.334Z,6.21
2024-03-12T22:41:25.373Z,6.11
2024-03-12T22:46:33.353Z,6.03
2024-03-12T22:51:42.458Z,5.92
2024-03-12T22:56:50.535Z,5.77
2024-03-12T23:01:57.718Z,5.62
2024-03-12T23:07:05.916Z,5.54
2024-03-12T23:12:11.704Z,5.48
2024-03-12T23:17:18.835Z,5.41
2024-03-12T23:22:28.778Z,5.31
2024-03-12T23:27:38.900Z,5.24
2024-03-12T23:32:46.582Z,5.21
2024-03-12T23:37:54.103Z,5.20
2024-03-12T23:43:02.057Z,5.19
2024-03-12T23:48:10.292Z,5.14
2024-03-12T23:53:17.842Z,5.09
2024-03-12T23:58:25.247Z,5.04
